sensor_id;sensor_type;location;lat;lon;timestamp;P1;durP1;ratioP1;P2;durP2;ratioP2
74808;SDS011;63338;39.544;2.596;2022-12-29T00:00:13;4.30;;;2.10;;
74808;SDS011;63338;39.544;2.596;2022-12-29T00:02:40;6.97;;;2.17;;
74808;SDS011;63338;39.544;2.596;2022-12-29T00:05:06;5.80;;;2.03;;
74808;SDS011;63338;39.544;2.596;2022-12-29T00:07:32;5.40;;;2.00;;
74808;SDS011;63338;39.544;2.596;2022-12-29T00:09:58;4.18;;;2.00;;
74808;SDS011;63338;39.544;2.596;2022-12-29T00:12:24;5.28;;;2.00;;
74808;SDS011;63338;39.544;2.596;2022-12-29T00:15:10;5.35;;;1.80;;
74808;SDS011;63338;39.544;2.596;2022-12-29T00:17:55;3.80;;;1.88;;
74808;SDS011;63338;39.544;2.596;2022-12-29T00:20:21;7.43;;;2.70;;
74808;SDS011;63338;39.544;2.596;2022-12-29T00:23:05;7.53;;;2.65;;
74808;SDS011;63338;39.544;2.596;2022-12-29T00:25:52;7.30;;;2.90;;
74808;SDS011;63338;39.544;2.596;2022-12-29T00:28:36;5.78;;;2.33;;
74808;SDS011;63338;39.544;2.596;2022-12-29T00:31:20;5.47;;;2.17;;
74808;SDS011;63338;39.544;2.596;2022-12-29T00:34:07;6.28;;;1.98;;
74808;SDS011;63338;39.544;2.596;2022-12-29T00:36:54;6.30;;;2.22;;
74808;SDS011;63338;39.544;2.596;2022-12-29T00:39:20;6.45;;;1.90;;
74808;SDS011;63338;39.544;2.596;2022-12-29T00:42:05;5.75;;;1.75;;
74808;SDS011;63338;39.544;2.596;2022-12-29T00:44:51;4.00;;;1.90;;
74808;SDS011;63338;39.544;2.596;2022-12-29T00:47:17;6.60;;;1.95;;
74808;SDS011;63338;39.544;2.596;2022-12-29T00:49:43;5.63;;;1.67;;
74808;SDS011;63338;39.544;2.596;2022-12-29T00:52:10;7.90;;;1.92;;
74808;SDS011;63338;39.544;2.596;2022-12-29T00:54:39;4.82;;;2.00;;
74808;SDS011;63338;39.544;2.596;2022-12-29T00:57:07;4.47;;;1.63;;
74808;SDS011;63338;39.544;2.596;2022-12-29T00:59:35;4.88;;;1.55;;
74808;SDS011;63338;39.544;2.596;2022-12-29T01:02:02;3.47;;;1.75;;
74808;SDS011;63338;39.544;2.596;2022-12-29T01:04:28;5.05;;;1.60;;
74808;SDS011;63338;39.544;2.596;2022-12-29T01:06:54;6.50;;;1.40;;
74808;SDS011;63338;39.544;2.596;2022-12-29T01:09:20;7.20;;;1.85;;
74808;SDS011;63338;39.544;2.596;2022-12-29T01:12:06;4.88;;;1.70;;
74808;SDS011;63338;39.544;2.596;2022-12-29T01:14:35;4.90;;;1.55;;
74808;SDS011;63338;39.544;2.596;2022-12-29T01:17:01;6.32;;;1.90;;
74808;SDS011;63338;39.544;2.596;2022-12-29T01:19:27;3.15;;;1.42;;
74808;SDS011;63338;39.544;2.596;2022-12-29T01:21:53;3.55;;;1.60;;
74808;SDS011;63338;39.544;2.596;2022-12-29T01:24:20;4.75;;;1.48;;
74808;SDS011;63338;39.544;2.596;2022-12-29T01:26:46;3.33;;;1.60;;
74808;SDS011;63338;39.544;2.596;2022-12-29T01:29:13;4.53;;;1.48;;
74808;SDS011;63338;39.544;2.596;2022-12-29T01:31:40;6.82;;;1.58;;
74808;SDS011;63338;39.544;2.596;2022-12-29T01:34:06;6.53;;;1.75;;
74808;SDS011;63338;39.544;2.596;2022-12-29T01:36:32;4.55;;;1.58;;
74808;SDS011;63338;39.544;2.596;2022-12-29T01:39:02;5.20;;;1.90;;
74808;SDS011;63338;39.544;2.596;2022-12-29T01:41:28;3.95;;;1.90;;
74808;SDS011;63338;39.544;2.596;2022-12-29T01:43:55;3.22;;;1.52;;
74808;SDS011;63338;39.544;2.596;2022-12-29T01:46:40;3.25;;;1.55;;
74808;SDS011;63338;39.544;2.596;2022-12-29T01:49:11;3.55;;;1.30;;
74808;SDS011;63338;39.544;2.596;2022-12-29T01:51:53;5.60;;;1.80;;
74808;SDS011;63338;39.544;2.596;2022-12-29T01:54:22;5.18;;;1.50;;
74808;SDS011;63338;39.544;2.596;2022-12-29T01:57:07;5.72;;;1.50;;
74808;SDS011;63338;39.544;2.596;2022-12-29T01:59:38;8.38;;;1.65;;
74808;SDS011;63338;39.544;2.596;2022-12-29T02:02:11;2.97;;;1.50;;
74808;SDS011;63338;39.544;2.596;2022-12-29T02:04:39;7.90;;;2.25;;
74808;SDS011;63338;39.544;2.596;2022-12-29T02:07:10;3.72;;;1.45;;
74808;SDS011;63338;39.544;2.596;2022-12-29T02:09:43;3.83;;;1.45;;
74808;SDS011;63338;39.544;2.596;2022-12-29T02:12:14;7.13;;;1.63;;
74808;SDS011;63338;39.544;2.596;2022-12-29T02:14:42;4.30;;;1.65;;
74808;SDS011;63338;39.544;2.596;2022-12-29T02:17:21;4.57;;;1.70;;
74808;SDS011;63338;39.544;2.596;2022-12-29T02:26:19;3.42;;;1.60;;
74808;SDS011;63338;39.544;2.596;2022-12-29T02:29:08;5.15;;;1.90;;
74808;SDS011;63338;39.544;2.596;2022-12-29T02:40:00;3.90;;;1.63;;
74808;SDS011;63338;39.544;2.596;2022-12-29T02:42:46;5.53;;;2.00;;
74808;SDS011;63338;39.544;2.596;2022-12-29T02:53:24;5.45;;;1.80;;
74808;SDS011;63338;39.544;2.596;2022-12-29T02:56:10;8.82;;;1.73;;
74808;SDS011;63338;39.544;2.596;2022-12-29T02:58:36;5.57;;;1.70;;
74808;SDS011;63338;39.544;2.596;2022-12-29T03:01:16;3.97;;;1.70;;
74808;SDS011;63338;39.544;2.596;2022-12-29T03:06:37;3.67;;;1.90;;
74808;SDS011;63338;39.544;2.596;2022-12-29T03:17:46;7.10;;;2.38;;
74808;SDS011;63338;39.544;2.596;2022-12-29T03:20:26;5.72;;;2.10;;
74808;SDS011;63338;39.544;2.596;2022-12-29T03:23:04;5.15;;;2.00;;
74808;SDS011;63338;39.544;2.596;2022-12-29T03:25:33;6.10;;;2.17;;
74808;SDS011;63338;39.544;2.596;2022-12-29T03:28:07;7.78;;;2.78;;
74808;SDS011;63338;39.544;2.596;2022-12-29T03:30:36;6.30;;;2.03;;
74808;SDS011;63338;39.544;2.596;2022-12-29T03:33:07;5.18;;;2.33;;
74808;SDS011;63338;39.544;2.596;2022-12-29T03:35:36;4.95;;;2.10;;
74808;SDS011;63338;39.544;2.596;2022-12-29T03:40:56;6.15;;;2.03;;
74808;SDS011;63338;39.544;2.596;2022-12-29T03:43:24;7.18;;;2.90;;
74808;SDS011;63338;39.544;2.596;2022-12-29T03:45:52;5.45;;;2.10;;
74808;SDS011;63338;39.544;2.596;2022-12-29T03:48:17;4.95;;;2.05;;
74808;SDS011;63338;39.544;2.596;2022-12-29T03:50:43;7.18;;;2.22;;
74808;SDS011;63338;39.544;2.596;2022-12-29T03:53:09;10.32;;;2.25;;
74808;SDS011;63338;39.544;2.596;2022-12-29T03:55:35;5.93;;;2.20;;
74808;SDS011;63338;39.544;2.596;2022-12-29T03:58:01;7.68;;;3.22;;
74808;SDS011;63338;39.544;2.596;2022-12-29T04:00:27;5.50;;;2.67;;
74808;SDS011;63338;39.544;2.596;2022-12-29T04:02:53;5.95;;;2.92;;
74808;SDS011;63338;39.544;2.596;2022-12-29T04:05:20;3.83;;;2.33;;
74808;SDS011;63338;39.544;2.596;2022-12-29T04:07:46;6.68;;;3.03;;
74808;SDS011;63338;39.544;2.596;2022-12-29T04:10:12;7.38;;;2.60;;
74808;SDS011;63338;39.544;2.596;2022-12-29T04:12:38;5.75;;;2.40;;
74808;SDS011;63338;39.544;2.596;2022-12-29T04:15:04;7.43;;;3.60;;
74808;SDS011;63338;39.544;2.596;2022-12-29T04:17:30;7.93;;;2.90;;
74808;SDS011;63338;39.544;2.596;2022-12-29T04:19:56;7.97;;;2.28;;
74808;SDS011;63338;39.544;2.596;2022-12-29T04:22:42;7.00;;;3.95;;
74808;SDS011;63338;39.544;2.596;2022-12-29T04:25:08;6.93;;;2.50;;
74808;SDS011;63338;39.544;2.596;2022-12-29T04:27:34;7.65;;;2.80;;
74808;SDS011;63338;39.544;2.596;2022-12-29T04:30:00;6.32;;;3.38;;
74808;SDS011;63338;39.544;2.596;2022-12-29T04:32:26;6.75;;;2.75;;
74808;SDS011;63338;39.544;2.596;2022-12-29T04:34:52;5.00;;;2.40;;
74808;SDS011;63338;39.544;2.596;2022-12-29T04:37:18;5.13;;;2.90;;
74808;SDS011;63338;39.544;2.596;2022-12-29T04:39:44;5.18;;;2.55;;
74808;SDS011;63338;39.544;2.596;2022-12-29T04:42:10;8.70;;;3.40;;
74808;SDS011;63338;39.544;2.596;2022-12-29T04:44:36;12.38;;;5.10;;
74808;SDS011;63338;39.544;2.596;2022-12-29T04:47:02;9.43;;;3.67;;
74808;SDS011;63338;39.544;2.596;2022-12-29T04:49:28;9.13;;;5.00;;
74808;SDS011;63338;39.544;2.596;2022-12-29T04:51:57;9.32;;;4.20;;
74808;SDS011;63338;39.544;2.596;2022-12-29T04:54:23;12.13;;;5.65;;
74808;SDS011;63338;39.544;2.596;2022-12-29T04:56:49;9.95;;;5.03;;
74808;SDS011;63338;39.544;2.596;2022-12-29T04:59:15;14.02;;;6.75;;
74808;SDS011;63338;39.544;2.596;2022-12-29T05:01:43;10.68;;;6.75;;
74808;SDS011;63338;39.544;2.596;2022-12-29T05:04:09;19.63;;;8.38;;
74808;SDS011;63338;39.544;2.596;2022-12-29T05:06:38;15.52;;;8.07;;
74808;SDS011;63338;39.544;2.596;2022-12-29T05:09:04;15.73;;;7.35;;
74808;SDS011;63338;39.544;2.596;2022-12-29T05:11:31;12.38;;;5.85;;
74808;SDS011;63338;39.544;2.596;2022-12-29T05:13:57;9.85;;;5.35;;
74808;SDS011;63338;39.544;2.596;2022-12-29T05:16:23;11.10;;;6.00;;
74808;SDS011;63338;39.544;2.596;2022-12-29T05:18:49;10.05;;;4.85;;
74808;SDS011;63338;39.544;2.596;2022-12-29T05:21:15;10.18;;;5.47;;
74808;SDS011;63338;39.544;2.596;2022-12-29T05:23:42;11.60;;;4.50;;
74808;SDS011;63338;39.544;2.596;2022-12-29T05:26:11;9.88;;;5.15;;
74808;SDS011;63338;39.544;2.596;2022-12-29T05:28:37;13.35;;;5.18;;
74808;SDS011;63338;39.544;2.596;2022-12-29T05:31:03;10.13;;;4.68;;
74808;SDS011;63338;39.544;2.596;2022-12-29T05:33:29;9.80;;;4.25;;
74808;SDS011;63338;39.544;2.596;2022-12-29T05:35:55;6.40;;;3.35;;
74808;SDS011;63338;39.544;2.596;2022-12-29T05:38:21;7.68;;;3.90;;
74808;SDS011;63338;39.544;2.596;2022-12-29T05:40:47;10.90;;;3.75;;
74808;SDS011;63338;39.544;2.596;2022-12-29T05:43:13;9.60;;;3.88;;
74808;SDS011;63338;39.544;2.596;2022-12-29T05:45:39;9.75;;;4.13;;
74808;SDS011;63338;39.544;2.596;2022-12-29T05:48:05;12.75;;;4.15;;
74808;SDS011;63338;39.544;2.596;2022-12-29T05:50:31;7.78;;;3.45;;
74808;SDS011;63338;39.544;2.596;2022-12-29T05:53:00;6.00;;;3.15;;
74808;SDS011;63338;39.544;2.596;2022-12-29T05:55:26;7.90;;;3.70;;
74808;SDS011;63338;39.544;2.596;2022-12-29T05:57:53;8.93;;;4.63;;
74808;SDS011;63338;39.544;2.596;2022-12-29T06:00:19;8.35;;;3.55;;
74808;SDS011;63338;39.544;2.596;2022-12-29T06:02:45;8.70;;;3.88;;
74808;SDS011;63338;39.544;2.596;2022-12-29T06:05:12;8.32;;;3.88;;
74808;SDS011;63338;39.544;2.596;2022-12-29T06:07:37;5.93;;;3.20;;
74808;SDS011;63338;39.544;2.596;2022-12-29T06:10:04;14.75;;;3.95;;
74808;SDS011;63338;39.544;2.596;2022-12-29T06:12:31;7.22;;;3.70;;
74808;SDS011;63338;39.544;2.596;2022-12-29T06:14:57;9.35;;;3.63;;
74808;SDS011;63338;39.544;2.596;2022-12-29T06:17:23;7.60;;;3.85;;
74808;SDS011;63338;39.544;2.596;2022-12-29T06:19:50;8.05;;;3.47;;
74808;SDS011;63338;39.544;2.596;2022-12-29T06:22:16;8.95;;;3.78;;
74808;SDS011;63338;39.544;2.596;2022-12-29T06:24:43;10.18;;;3.90;;
74808;SDS011;63338;39.544;2.596;2022-12-29T06:27:09;9.02;;;3.50;;
74808;SDS011;63338;39.544;2.596;2022-12-29T06:29:35;8.27;;;3.38;;
74808;SDS011;63338;39.544;2.596;2022-12-29T06:32:02;9.70;;;4.38;;
74808;SDS011;63338;39.544;2.596;2022-12-29T06:34:28;8.13;;;3.72;;
74808;SDS011;63338;39.544;2.596;2022-12-29T06:36:54;6.43;;;3.40;;
74808;SDS011;63338;39.544;2.596;2022-12-29T06:39:20;7.45;;;3.22;;
74808;SDS011;63338;39.544;2.596;2022-12-29T06:41:46;8.52;;;3.95;;
74808;SDS011;63338;39.544;2.596;2022-12-29T06:44:12;12.48;;;4.68;;
74808;SDS011;63338;39.544;2.596;2022-12-29T06:46:38;7.53;;;3.65;;
74808;SDS011;63338;39.544;2.596;2022-12-29T06:49:04;10.48;;;3.70;;
74808;SDS011;63338;39.544;2.596;2022-12-29T06:51:30;9.32;;;3.75;;
74808;SDS011;63338;39.544;2.596;2022-12-29T06:53:56;9.27;;;4.22;;
74808;SDS011;63338;39.544;2.596;2022-12-29T06:56:22;7.07;;;4.00;;
74808;SDS011;63338;39.544;2.596;2022-12-29T06:58:48;10.43;;;4.10;;
74808;SDS011;63338;39.544;2.596;2022-12-29T07:01:14;8.70;;;4.30;;
74808;SDS011;63338;39.544;2.596;2022-12-29T07:03:41;8.10;;;4.18;;
74808;SDS011;63338;39.544;2.596;2022-12-29T07:06:08;7.82;;;3.70;;
74808;SDS011;63338;39.544;2.596;2022-12-29T07:08:34;9.70;;;4.07;;
74808;SDS011;63338;39.544;2.596;2022-12-29T07:11:00;7.55;;;3.65;;
74808;SDS011;63338;39.544;2.596;2022-12-29T07:13:26;8.60;;;4.35;;
74808;SDS011;63338;39.544;2.596;2022-12-29T07:15:52;11.13;;;5.22;;
74808;SDS011;63338;39.544;2.596;2022-12-29T07:18:21;7.88;;;4.15;;
74808;SDS011;63338;39.544;2.596;2022-12-29T07:20:47;8.60;;;4.13;;
74808;SDS011;63338;39.544;2.596;2022-12-29T07:23:13;9.15;;;4.35;;
74808;SDS011;63338;39.544;2.596;2022-12-29T07:25:39;8.05;;;4.15;;
74808;SDS011;63338;39.544;2.596;2022-12-29T07:28:06;7.80;;;3.97;;
74808;SDS011;63338;39.544;2.596;2022-12-29T07:30:32;6.65;;;4.22;;
74808;SDS011;63338;39.544;2.596;2022-12-29T07:32:59;10.30;;;4.30;;
74808;SDS011;63338;39.544;2.596;2022-12-29T07:35:27;6.28;;;4.10;;
74808;SDS011;63338;39.544;2.596;2022-12-29T07:37:58;7.95;;;4.30;;
74808;SDS011;63338;39.544;2.596;2022-12-29T07:40:24;7.25;;;4.18;;
74808;SDS011;63338;39.544;2.596;2022-12-29T07:42:50;8.50;;;4.18;;
74808;SDS011;63338;39.544;2.596;2022-12-29T07:45:17;9.98;;;4.57;;
74808;SDS011;63338;39.544;2.596;2022-12-29T07:47:43;20.73;;;5.28;;
74808;SDS011;63338;39.544;2.596;2022-12-29T07:50:12;15.20;;;5.20;;
74808;SDS011;63338;39.544;2.596;2022-12-29T07:52:39;15.15;;;5.25;;
74808;SDS011;63338;39.544;2.596;2022-12-29T07:55:05;9.82;;;4.88;;
74808;SDS011;63338;39.544;2.596;2022-12-29T07:57:31;10.27;;;4.63;;
74808;SDS011;63338;39.544;2.596;2022-12-29T07:59:58;9.77;;;4.85;;
74808;SDS011;63338;39.544;2.596;2022-12-29T08:02:24;10.43;;;4.57;;
74808;SDS011;63338;39.544;2.596;2022-12-29T08:04:51;8.95;;;4.43;;
74808;SDS011;63338;39.544;2.596;2022-12-29T08:07:17;10.80;;;4.65;;
74808;SDS011;63338;39.544;2.596;2022-12-29T08:09:43;10.82;;;4.35;;
74808;SDS011;63338;39.544;2.596;2022-12-29T08:12:10;13.65;;;4.63;;
74808;SDS011;63338;39.544;2.596;2022-12-29T08:14:36;16.92;;;4.97;;
74808;SDS011;63338;39.544;2.596;2022-12-29T08:17:02;12.10;;;4.85;;
74808;SDS011;63338;39.544;2.596;2022-12-29T08:19:28;15.15;;;5.88;;
74808;SDS011;63338;39.544;2.596;2022-12-29T08:21:54;12.43;;;5.35;;
74808;SDS011;63338;39.544;2.596;2022-12-29T08:24:20;14.45;;;5.22;;
74808;SDS011;63338;39.544;2.596;2022-12-29T08:26:47;18.70;;;7.15;;
74808;SDS011;63338;39.544;2.596;2022-12-29T08:29:13;19.08;;;7.18;;
74808;SDS011;63338;39.544;2.596;2022-12-29T08:31:39;21.20;;;7.05;;
74808;SDS011;63338;39.544;2.596;2022-12-29T08:34:05;18.00;;;6.93;;
74808;SDS011;63338;39.544;2.596;2022-12-29T08:36:33;17.98;;;7.28;;
74808;SDS011;63338;39.544;2.596;2022-12-29T08:38:59;16.40;;;7.20;;
74808;SDS011;63338;39.544;2.596;2022-12-29T08:41:25;20.45;;;8.07;;
74808;SDS011;63338;39.544;2.596;2022-12-29T08:43:51;25.00;;;9.55;;
74808;SDS011;63338;39.544;2.596;2022-12-29T08:46:18;29.00;;;12.68;;
74808;SDS011;63338;39.544;2.596;2022-12-29T08:48:44;19.45;;;8.77;;
74808;SDS011;63338;39.544;2.596;2022-12-29T08:51:10;15.38;;;4.80;;
74808;SDS011;63338;39.544;2.596;2022-12-29T08:53:38;12.63;;;3.30;;
74808;SDS011;63338;39.544;2.596;2022-12-29T08:56:04;6.85;;;2.72;;
74808;SDS011;63338;39.544;2.596;2022-12-29T08:58:30;9.45;;;2.90;;
74808;SDS011;63338;39.544;2.596;2022-12-29T09:00:57;11.57;;;2.88;;
74808;SDS011;63338;39.544;2.596;2022-12-29T09:03:23;8.85;;;2.97;;
74808;SDS011;63338;39.544;2.596;2022-12-29T09:05:51;7.30;;;2.60;;
74808;SDS011;63338;39.544;2.596;2022-12-29T09:08:18;12.60;;;3.00;;
74808;SDS011;63338;39.544;2.596;2022-12-29T09:10:45;12.85;;;2.80;;
74808;SDS011;63338;39.544;2.596;2022-12-29T09:13:12;12.13;;;3.38;;
74808;SDS011;63338;39.544;2.596;2022-12-29T09:18:08;10.38;;;2.78;;
74808;SDS011;63338;39.544;2.596;2022-12-29T09:20:35;7.28;;;3.00;;
74808;SDS011;63338;39.544;2.596;2022-12-29T09:23:02;8.18;;;3.00;;
74808;SDS011;63338;39.544;2.596;2022-12-29T09:25:28;14.27;;;3.78;;
74808;SDS011;63338;39.544;2.596;2022-12-29T09:27:55;10.52;;;3.05;;
74808;SDS011;63338;39.544;2.596;2022-12-29T09:30:22;10.93;;;3.42;;
74808;SDS011;63338;39.544;2.596;2022-12-29T09:32:48;6.40;;;2.22;;
74808;SDS011;63338;39.544;2.596;2022-12-29T09:35:15;6.82;;;1.92;;
74808;SDS011;63338;39.544;2.596;2022-12-29T09:37:42;7.28;;;2.08;;
74808;SDS011;63338;39.544;2.596;2022-12-29T09:40:22;12.05;;;2.10;;
74808;SDS011;63338;39.544;2.596;2022-12-29T09:45:57;12.40;;;3.20;;
74808;SDS011;63338;39.544;2.596;2022-12-29T09:48:34;8.60;;;2.75;;
74808;SDS011;63338;39.544;2.596;2022-12-29T09:51:08;8.63;;;3.05;;
74808;SDS011;63338;39.544;2.596;2022-12-29T09:53:40;9.73;;;3.95;;
74808;SDS011;63338;39.544;2.596;2022-12-29T09:56:15;12.10;;;4.20;;
74808;SDS011;63338;39.544;2.596;2022-12-29T09:58:45;12.27;;;4.00;;
74808;SDS011;63338;39.544;2.596;2022-12-29T10:04:07;12.25;;;4.68;;
74808;SDS011;63338;39.544;2.596;2022-12-29T10:06:55;11.88;;;4.75;;
74808;SDS011;63338;39.544;2.596;2022-12-29T10:09:37;8.48;;;3.53;;
74808;SDS011;63338;39.544;2.596;2022-12-29T10:12:35;14.02;;;3.05;;
74808;SDS011;63338;39.544;2.596;2022-12-29T10:15:14;12.07;;;2.90;;
74808;SDS011;63338;39.544;2.596;2022-12-29T10:18:32;11.57;;;2.65;;
74808;SDS011;63338;39.544;2.596;2022-12-29T10:23:39;11.77;;;2.65;;
74808;SDS011;63338;39.544;2.596;2022-12-29T10:26:14;8.40;;;2.40;;
74808;SDS011;63338;39.544;2.596;2022-12-29T10:28:47;9.00;;;2.05;;
74808;SDS011;63338;39.544;2.596;2022-12-29T10:31:15;9.68;;;2.47;;
74808;SDS011;63338;39.544;2.596;2022-12-29T10:33:48;8.13;;;2.08;;
74808;SDS011;63338;39.544;2.596;2022-12-29T10:36:35;13.98;;;2.55;;
74808;SDS011;63338;39.544;2.596;2022-12-29T10:42:25;8.70;;;2.05;;
74808;SDS011;63338;39.544;2.596;2022-12-29T10:44:54;8.68;;;1.90;;
74808;SDS011;63338;39.544;2.596;2022-12-29T10:47:23;8.10;;;2.17;;
74808;SDS011;63338;39.544;2.596;2022-12-29T10:49:53;9.13;;;2.10;;
74808;SDS011;63338;39.544;2.596;2022-12-29T10:52:20;9.88;;;1.70;;
74808;SDS011;63338;39.544;2.596;2022-12-29T10:54:54;5.80;;;2.15;;
74808;SDS011;63338;39.544;2.596;2022-12-29T10:57:38;7.43;;;1.90;;
74808;SDS011;63338;39.544;2.596;2022-12-29T11:00:14;7.70;;;2.00;;
74808;SDS011;63338;39.544;2.596;2022-12-29T11:05:35;8.15;;;2.17;;
74808;SDS011;63338;39.544;2.596;2022-12-29T11:08:39;10.80;;;1.85;;
74808;SDS011;63338;39.544;2.596;2022-12-29T11:11:12;14.10;;;2.25;;
74808;SDS011;63338;39.544;2.596;2022-12-29T11:13:55;9.07;;;2.50;;
74808;SDS011;63338;39.544;2.596;2022-12-29T11:16:30;13.32;;;2.55;;
74808;SDS011;63338;39.544;2.596;2022-12-29T11:18:59;11.75;;;2.33;;
74808;SDS011;63338;39.544;2.596;2022-12-29T11:24:05;24.17;;;3.22;;
74808;SDS011;63338;39.544;2.596;2022-12-29T11:26:43;19.10;;;2.60;;
74808;SDS011;63338;39.544;2.596;2022-12-29T11:29:17;9.68;;;1.85;;
74808;SDS011;63338;39.544;2.596;2022-12-29T11:31:51;7.35;;;1.63;;
74808;SDS011;63338;39.544;2.596;2022-12-29T11:34:24;4.70;;;1.50;;
74808;SDS011;63338;39.544;2.596;2022-12-29T11:36:53;7.28;;;1.55;;
74808;SDS011;63338;39.544;2.596;2022-12-29T11:39:32;7.38;;;1.60;;
74808;SDS011;63338;39.544;2.596;2022-12-29T11:42:17;5.80;;;1.60;;
74808;SDS011;63338;39.544;2.596;2022-12-29T11:47:25;6.65;;;1.80;;
74808;SDS011;63338;39.544;2.596;2022-12-29T11:49:57;8.70;;;1.80;;
74808;SDS011;63338;39.544;2.596;2022-12-29T11:52:30;5.72;;;1.33;;
74808;SDS011;63338;39.544;2.596;2022-12-29T11:55:00;6.47;;;1.42;;
74808;SDS011;63338;39.544;2.596;2022-12-29T11:57:30;7.15;;;1.60;;
74808;SDS011;63338;39.544;2.596;2022-12-29T12:00:00;9.20;;;1.27;;
74808;SDS011;63338;39.544;2.596;2022-12-29T12:02:40;7.88;;;1.70;;
74808;SDS011;63338;39.544;2.596;2022-12-29T12:13:43;6.63;;;1.08;;
74808;SDS011;63338;39.544;2.596;2022-12-29T12:16:21;9.43;;;1.38;;
74808;SDS011;63338;39.544;2.596;2022-12-29T12:18:53;9.30;;;1.50;;
74808;SDS011;63338;39.544;2.596;2022-12-29T12:21:36;7.15;;;1.30;;
74808;SDS011;63338;39.544;2.596;2022-12-29T12:24:11;8.55;;;1.38;;
74808;SDS011;63338;39.544;2.596;2022-12-29T12:31:55;9.27;;;1.60;;
74808;SDS011;63338;39.544;2.596;2022-12-29T12:34:46;10.57;;;1.65;;
74808;SDS011;63338;39.544;2.596;2022-12-29T12:43:06;12.68;;;1.75;;
74808;SDS011;63338;39.544;2.596;2022-12-29T12:51:19;9.45;;;1.25;;
74808;SDS011;63338;39.544;2.596;2022-12-29T12:56:51;8.13;;;1.10;;
74808;SDS011;63338;39.544;2.596;2022-12-29T13:10:50;5.30;;;1.02;;
74808;SDS011;63338;39.544;2.596;2022-12-29T13:16:03;6.00;;;0.77;;
74808;SDS011;63338;39.544;2.596;2022-12-29T13:18:47;11.57;;;1.48;;
74808;SDS011;63338;39.544;2.596;2022-12-29T13:24:39;9.00;;;1.50;;
74808;SDS011;63338;39.544;2.596;2022-12-29T13:30:04;10.68;;;1.50;;
74808;SDS011;63338;39.544;2.596;2022-12-29T13:35:22;5.88;;;1.10;;
74808;SDS011;63338;39.544;2.596;2022-12-29T13:37:58;6.88;;;1.33;;
74808;SDS011;63338;39.544;2.596;2022-12-29T13:40:36;9.48;;;1.40;;
74808;SDS011;63338;39.544;2.596;2022-12-29T13:43:06;10.52;;;1.40;;
74808;SDS011;63338;39.544;2.596;2022-12-29T13:45:33;12.85;;;1.48;;
74808;SDS011;63338;39.544;2.596;2022-12-29T13:50:53;8.63;;;1.40;;
74808;SDS011;63338;39.544;2.596;2022-12-29T13:53:37;5.53;;;1.20;;
74808;SDS011;63338;39.544;2.596;2022-12-29T13:56:24;7.03;;;1.48;;
74808;SDS011;63338;39.544;2.596;2022-12-29T13:58:58;5.97;;;1.20;;
74808;SDS011;63338;39.544;2.596;2022-12-29T14:01:42;9.50;;;1.55;;
74808;SDS011;63338;39.544;2.596;2022-12-29T14:04:20;10.98;;;1.48;;
74808;SDS011;63338;39.544;2.596;2022-12-29T14:06:58;8.52;;;1.05;;
74808;SDS011;63338;39.544;2.596;2022-12-29T14:09:46;6.90;;;0.93;;
74808;SDS011;63338;39.544;2.596;2022-12-29T14:14:51;10.68;;;1.48;;
74808;SDS011;63338;39.544;2.596;2022-12-29T14:17:20;8.98;;;1.20;;
74808;SDS011;63338;39.544;2.596;2022-12-29T14:19:47;7.30;;;0.90;;
74808;SDS011;63338;39.544;2.596;2022-12-29T14:22:25;7.20;;;0.90;;
74808;SDS011;63338;39.544;2.596;2022-12-29T14:24:52;5.72;;;1.20;;
74808;SDS011;63338;39.544;2.596;2022-12-29T14:29:46;6.82;;;1.13;;
74808;SDS011;63338;39.544;2.596;2022-12-29T14:34:55;7.32;;;1.23;;
74808;SDS011;63338;39.544;2.596;2022-12-29T14:40:03;7.53;;;1.13;;
74808;SDS011;63338;39.544;2.596;2022-12-29T14:42:31;6.43;;;1.02;;
74808;SDS011;63338;39.544;2.596;2022-12-29T14:45:08;11.35;;;1.13;;
74808;SDS011;63338;39.544;2.596;2022-12-29T14:47:45;7.20;;;0.90;;
74808;SDS011;63338;39.544;2.596;2022-12-29T14:52:55;6.28;;;1.10;;
74808;SDS011;63338;39.544;2.596;2022-12-29T14:57:59;6.00;;;0.77;;
74808;SDS011;63338;39.544;2.596;2022-12-29T15:00:29;7.45;;;1.13;;
74808;SDS011;63338;39.544;2.596;2022-12-29T15:05:43;8.98;;;1.20;;
74808;SDS011;63338;39.544;2.596;2022-12-29T15:08:21;8.90;;;1.25;;
74808;SDS011;63338;39.544;2.596;2022-12-29T15:11:00;8.27;;;1.23;;
74808;SDS011;63338;39.544;2.596;2022-12-29T15:13:35;7.72;;;0.80;;
74808;SDS011;63338;39.544;2.596;2022-12-29T15:16:04;10.40;;;1.13;;
74808;SDS011;63338;39.544;2.596;2022-12-29T15:18:31;8.55;;;1.20;;
74808;SDS011;63338;39.544;2.596;2022-12-29T15:23:32;7.38;;;1.30;;
74808;SDS011;63338;39.544;2.596;2022-12-29T15:26:01;7.95;;;1.25;;
74808;SDS011;63338;39.544;2.596;2022-12-29T15:28:47;15.57;;;1.58;;
74808;SDS011;63338;39.544;2.596;2022-12-29T15:31:16;6.07;;;1.10;;
74808;SDS011;63338;39.544;2.596;2022-12-29T15:33:48;5.57;;;0.98;;
74808;SDS011;63338;39.544;2.596;2022-12-29T15:36:20;6.25;;;0.90;;
74808;SDS011;63338;39.544;2.596;2022-12-29T15:38:51;5.88;;;1.27;;
74808;SDS011;63338;39.544;2.596;2022-12-29T15:43:59;8.88;;;1.15;;
74808;SDS011;63338;39.544;2.596;2022-12-29T15:46:31;9.60;;;1.42;;
74808;SDS011;63338;39.544;2.596;2022-12-29T15:48:58;10.50;;;1.70;;
74808;SDS011;63338;39.544;2.596;2022-12-29T15:53:55;8.23;;;1.33;;
74808;SDS011;63338;39.544;2.596;2022-12-29T15:56:21;12.85;;;1.35;;
74808;SDS011;63338;39.544;2.596;2022-12-29T15:58:49;12.60;;;1.42;;
74808;SDS011;63338;39.544;2.596;2022-12-29T16:03:52;12.52;;;2.15;;
74808;SDS011;63338;39.544;2.596;2022-12-29T16:11:33;10.30;;;1.17;;
74808;SDS011;63338;39.544;2.596;2022-12-29T16:14:02;8.95;;;1.35;;
74808;SDS011;63338;39.544;2.596;2022-12-29T16:16:39;10.43;;;1.30;;
74808;SDS011;63338;39.544;2.596;2022-12-29T16:19:12;12.73;;;1.98;;
74808;SDS011;63338;39.544;2.596;2022-12-29T16:21:41;8.77;;;1.60;;
74808;SDS011;63338;39.544;2.596;2022-12-29T16:24:11;8.35;;;1.33;;
74808;SDS011;63338;39.544;2.596;2022-12-29T16:26:47;6.32;;;1.42;;
74808;SDS011;63338;39.544;2.596;2022-12-29T16:29:15;8.48;;;1.40;;
74808;SDS011;63338;39.544;2.596;2022-12-29T16:31:57;6.38;;;1.30;;
74808;SDS011;63338;39.544;2.596;2022-12-29T16:34:41;8.60;;;1.50;;
74808;SDS011;63338;39.544;2.596;2022-12-29T16:37:27;7.93;;;1.40;;
74808;SDS011;63338;39.544;2.596;2022-12-29T16:47:47;12.50;;;1.85;;
74808;SDS011;63338;39.544;2.596;2022-12-29T16:50:31;13.48;;;1.90;;
74808;SDS011;63338;39.544;2.596;2022-12-29T16:52:59;12.68;;;1.67;;
74808;SDS011;63338;39.544;2.596;2022-12-29T16:55:25;12.80;;;1.40;;
74808;SDS011;63338;39.544;2.596;2022-12-29T16:57:52;9.77;;;1.67;;
74808;SDS011;63338;39.544;2.596;2022-12-29T17:00:23;12.52;;;1.45;;
74808;SDS011;63338;39.544;2.596;2022-12-29T17:03:00;5.50;;;1.27;;
74808;SDS011;63338;39.544;2.596;2022-12-29T17:05:27;9.32;;;1.60;;
74808;SDS011;63338;39.544;2.596;2022-12-29T17:07:53;7.93;;;1.35;;
74808;SDS011;63338;39.544;2.596;2022-12-29T17:10:26;7.88;;;1.58;;
74808;SDS011;63338;39.544;2.596;2022-12-29T17:13:12;11.25;;;2.00;;
74808;SDS011;63338;39.544;2.596;2022-12-29T17:15:38;12.05;;;2.35;;
74808;SDS011;63338;39.544;2.596;2022-12-29T17:18:04;10.90;;;2.70;;
74808;SDS011;63338;39.544;2.596;2022-12-29T17:20:31;9.20;;;1.73;;
74808;SDS011;63338;39.544;2.596;2022-12-29T17:22:59;7.70;;;1.60;;
74808;SDS011;63338;39.544;2.596;2022-12-29T17:25:30;14.98;;;2.65;;
74808;SDS011;63338;39.544;2.596;2022-12-29T17:28:20;12.00;;;2.38;;
74808;SDS011;63338;39.544;2.596;2022-12-29T17:30:48;11.10;;;2.40;;
74808;SDS011;63338;39.544;2.596;2022-12-29T17:33:16;10.68;;;1.95;;
74808;SDS011;63338;39.544;2.596;2022-12-29T17:35:43;10.95;;;1.85;;
74808;SDS011;63338;39.544;2.596;2022-12-29T17:38:34;12.27;;;1.73;;